sensor_id;sensor_type;location;lat;lon;timestamp;P1;durP1;ratioP1;P2;durP2;ratioP2
76123;SDS011;65173;48.066;20.976;2023-11-19T00:00:29;3.88;;;1.75;;
76123;SDS011;65173;48.066;20.976;2023-11-19T00:03:31;5.30;;;2.22;;
76123;SDS011;65173;48.066;20.976;2023-11-19T00:06:35;2.90;;;1.55;;
76123;SDS011;65173;48.066;20.976;2023-11-19T00:09:38;5.15;;;2.10;;
76123;SDS011;65173;48.066;20.976;2023-11-19T00:12:42;4.40;;;2.27;;
76123;SDS011;65173;48.066;20.976;2023-11-19T00:15:46;2.47;;;1.80;;
76123;SDS011;65173;48.066;20.976;2023-11-19T00:18:49;3.60;;;2.70;;
76123;SDS011;65173;48.066;20.976;2023-11-19T00:21:52;3.53;;;1.83;;
76123;SDS011;65173;48.066;20.976;2023-11-19T00:24:55;4.97;;;2.72;;
76123;SDS011;65173;48.066;20.976;2023-11-19T00:27:57;8.10;;;3.42;;
76123;SDS011;65173;48.066;20.976;2023-11-19T00:31:00;3.03;;;2.35;;
76123;SDS011;65173;48.066;20.976;2023-11-19T00:34:02;3.90;;;2.42;;
76123;SDS011;65173;48.066;20.976;2023-11-19T00:37:05;4.93;;;2.17;;
76123;SDS011;65173;48.066;20.976;2023-11-19T00:40:09;4.75;;;2.72;;
76123;SDS011;65173;48.066;20.976;2023-11-19T00:43:13;9.30;;;3.00;;
76123;SDS011;65173;48.066;20.976;2023-11-19T00:46:16;7.43;;;2.97;;
76123;SDS011;65173;48.066;20.976;2023-11-19T00:49:18;9.60;;;1.92;;
76123;SDS011;65173;48.066;20.976;2023-11-19T00:52:21;3.93;;;1.67;;
76123;SDS011;65173;48.066;20.976;2023-11-19T00:55:24;5.90;;;1.67;;
76123;SDS011;65173;48.066;20.976;2023-11-19T00:58:26;4.95;;;2.05;;
76123;SDS011;65173;48.066;20.976;2023-11-19T01:01:29;4.20;;;1.77;;
76123;SDS011;65173;48.066;20.976;2023-11-19T01:04:35;1.45;;;1.23;;
76123;SDS011;65173;48.066;20.976;2023-11-19T01:07:38;3.47;;;2.42;;
76123;SDS011;65173;48.066;20.976;2023-11-19T01:10:41;2.72;;;1.67;;
76123;SDS011;65173;48.066;20.976;2023-11-19T01:13:44;2.93;;;1.53;;
76123;SDS011;65173;48.066;20.976;2023-11-19T01:16:46;3.20;;;2.13;;
76123;SDS011;65173;48.066;20.976;2023-11-19T01:19:49;3.60;;;2.28;;
76123;SDS011;65173;48.066;20.976;2023-11-19T01:22:52;3.13;;;1.73;;
76123;SDS011;65173;48.066;20.976;2023-11-19T01:25:55;6.68;;;2.45;;
76123;SDS011;65173;48.066;20.976;2023-11-19T01:28:57;5.53;;;3.33;;
76123;SDS011;65173;48.066;20.976;2023-11-19T01:32:00;3.58;;;2.38;;
76123;SDS011;65173;48.066;20.976;2023-11-19T01:35:03;2.90;;;0.98;;
76123;SDS011;65173;48.066;20.976;2023-11-19T01:38:06;5.97;;;2.72;;
76123;SDS011;65173;48.066;20.976;2023-11-19T01:41:10;7.22;;;2.33;;
76123;SDS011;65173;48.066;20.976;2023-11-19T01:44:13;3.50;;;1.77;;
76123;SDS011;65173;48.066;20.976;2023-11-19T01:47:15;3.38;;;1.92;;
76123;SDS011;65173;48.066;20.976;2023-11-19T01:50:18;3.30;;;2.05;;
76123;SDS011;65173;48.066;20.976;2023-11-19T01:53:21;5.17;;;3.00;;
76123;SDS011;65173;48.066;20.976;2023-11-19T01:56:24;2.75;;;1.83;;
76123;SDS011;65173;48.066;20.976;2023-11-19T01:59:28;2.63;;;1.50;;
76123;SDS011;65173;48.066;20.976;2023-11-19T02:02:30;5.72;;;2.50;;
76123;SDS011;65173;48.066;20.976;2023-11-19T02:05:34;3.17;;;2.47;;
76123;SDS011;65173;48.066;20.976;2023-11-19T02:08:37;6.32;;;2.38;;
76123;SDS011;65173;48.066;20.976;2023-11-19T02:11:41;2.92;;;2.30;;
76123;SDS011;65173;48.066;20.976;2023-11-19T02:14:43;2.70;;;1.67;;
76123;SDS011;65173;48.066;20.976;2023-11-19T02:17:46;6.35;;;2.95;;
76123;SDS011;65173;48.066;20.976;2023-11-19T02:20:49;4.43;;;2.45;;
76123;SDS011;65173;48.066;20.976;2023-11-19T02:23:52;5.63;;;2.97;;
76123;SDS011;65173;48.066;20.976;2023-11-19T02:27:00;5.35;;;1.63;;
76123;SDS011;65173;48.066;20.976;2023-11-19T02:30:11;3.45;;;2.38;;
76123;SDS011;65173;48.066;20.976;2023-11-19T02:33:16;8.65;;;2.47;;
76123;SDS011;65173;48.066;20.976;2023-11-19T02:36:19;7.18;;;3.08;;
76123;SDS011;65173;48.066;20.976;2023-11-19T02:39:22;2.97;;;1.98;;
76123;SDS011;65173;48.066;20.976;2023-11-19T02:42:25;3.95;;;2.25;;
76123;SDS011;65173;48.066;20.976;2023-11-19T02:45:27;5.57;;;3.17;;
76123;SDS011;65173;48.066;20.976;2023-11-19T02:48:33;5.75;;;2.33;;
76123;SDS011;65173;48.066;20.976;2023-11-19T02:51:37;6.78;;;3.22;;
76123;SDS011;65173;48.066;20.976;2023-11-19T02:54:42;4.97;;;2.57;;
76123;SDS011;65173;48.066;20.976;2023-11-19T02:57:45;8.45;;;2.88;;
76123;SDS011;65173;48.066;20.976;2023-11-19T03:00:50;4.95;;;3.15;;
76123;SDS011;65173;48.066;20.976;2023-11-19T03:04:00;6.07;;;3.58;;
76123;SDS011;65173;48.066;20.976;2023-11-19T03:07:05;4.15;;;2.88;;
76123;SDS011;65173;48.066;20.976;2023-11-19T03:10:10;4.07;;;2.92;;
76123;SDS011;65173;48.066;20.976;2023-11-19T03:13:16;5.80;;;3.78;;
76123;SDS011;65173;48.066;20.976;2023-11-19T03:16:21;5.77;;;2.33;;
76123;SDS011;65173;48.066;20.976;2023-11-19T03:19:24;7.03;;;2.97;;
76123;SDS011;65173;48.066;20.976;2023-11-19T03:22:27;6.70;;;3.88;;
76123;SDS011;65173;48.066;20.976;2023-11-19T03:25:30;4.33;;;2.67;;
76123;SDS011;65173;48.066;20.976;2023-11-19T03:28:36;5.07;;;2.03;;
76123;SDS011;65173;48.066;20.976;2023-11-19T03:31:41;6.18;;;2.65;;
76123;SDS011;65173;48.066;20.976;2023-11-19T03:34:45;6.10;;;2.67;;
76123;SDS011;65173;48.066;20.976;2023-11-19T03:37:47;3.95;;;2.17;;
76123;SDS011;65173;48.066;20.976;2023-11-19T03:40:49;4.00;;;2.65;;
76123;SDS011;65173;48.066;20.976;2023-11-19T03:43:52;10.45;;;3.63;;
76123;SDS011;65173;48.066;20.976;2023-11-19T03:46:55;8.50;;;1.97;;
76123;SDS011;65173;48.066;20.976;2023-11-19T03:49:57;3.90;;;2.42;;
76123;SDS011;65173;48.066;20.976;2023-11-19T03:53:00;7.15;;;3.15;;
76123;SDS011;65173;48.066;20.976;2023-11-19T03:56:02;6.30;;;3.63;;
76123;SDS011;65173;48.066;20.976;2023-11-19T03:59:05;2.78;;;1.88;;
76123;SDS011;65173;48.066;20.976;2023-11-19T04:02:08;6.00;;;3.20;;
76123;SDS011;65173;48.066;20.976;2023-11-19T04:05:10;7.05;;;3.40;;
76123;SDS011;65173;48.066;20.976;2023-11-19T04:08:13;3.83;;;2.42;;
76123;SDS011;65173;48.066;20.976;2023-11-19T04:11:15;5.32;;;2.85;;
76123;SDS011;65173;48.066;20.976;2023-11-19T04:14:18;7.93;;;3.65;;
76123;SDS011;65173;48.066;20.976;2023-11-19T04:17:20;5.47;;;3.17;;
76123;SDS011;65173;48.066;20.976;2023-11-19T04:20:23;4.43;;;3.30;;
76123;SDS011;65173;48.066;20.976;2023-11-19T04:23:25;7.30;;;2.40;;
76123;SDS011;65173;48.066;20.976;2023-11-19T04:26:28;4.87;;;2.37;;
76123;SDS011;65173;48.066;20.976;2023-11-19T04:29:32;5.28;;;3.40;;
76123;SDS011;65173;48.066;20.976;2023-11-19T04:32:36;6.75;;;3.05;;
76123;SDS011;65173;48.066;20.976;2023-11-19T04:35:38;5.50;;;3.17;;
76123;SDS011;65173;48.066;20.976;2023-11-19T04:38:41;7.20;;;2.80;;
76123;SDS011;65173;48.066;20.976;2023-11-19T04:41:46;8.43;;;4.25;;
76123;SDS011;65173;48.066;20.976;2023-11-19T04:44:51;4.55;;;3.10;;
76123;SDS011;65173;48.066;20.976;2023-11-19T04:47:53;5.37;;;4.03;;
76123;SDS011;65173;48.066;20.976;2023-11-19T04:50:55;5.95;;;2.85;;
76123;SDS011;65173;48.066;20.976;2023-11-19T04:53:58;7.47;;;3.45;;
76123;SDS011;65173;48.066;20.976;2023-11-19T04:57:00;9.03;;;3.43;;
76123;SDS011;65173;48.066;20.976;2023-11-19T05:00:03;10.32;;;6.15;;
76123;SDS011;65173;48.066;20.976;2023-11-19T05:03:18;6.88;;;2.88;;
76123;SDS011;65173;48.066;20.976;2023-11-19T05:06:21;8.23;;;4.30;;
76123;SDS011;65173;48.066;20.976;2023-11-19T05:09:23;12.07;;;3.75;;
76123;SDS011;65173;48.066;20.976;2023-11-19T05:12:26;6.75;;;1.95;;
76123;SDS011;65173;48.066;20.976;2023-11-19T05:15:28;5.90;;;3.22;;
76123;SDS011;65173;48.066;20.976;2023-11-19T05:18:31;6.23;;;4.13;;
76123;SDS011;65173;48.066;20.976;2023-11-19T05:21:33;7.97;;;4.10;;
76123;SDS011;65173;48.066;20.976;2023-11-19T05:24:36;3.85;;;2.47;;
76123;SDS011;65173;48.066;20.976;2023-11-19T05:27:39;6.13;;;2.87;;
76123;SDS011;65173;48.066;20.976;2023-11-19T05:30:41;11.68;;;4.68;;
76123;SDS011;65173;48.066;20.976;2023-11-19T05:33:44;5.88;;;3.20;;
76123;SDS011;65173;48.066;20.976;2023-11-19T05:36:46;8.63;;;3.72;;
76123;SDS011;65173;48.066;20.976;2023-11-19T05:39:49;7.25;;;3.13;;
76123;SDS011;65173;48.066;20.976;2023-11-19T05:42:52;3.97;;;2.67;;
76123;SDS011;65173;48.066;20.976;2023-11-19T05:45:54;4.72;;;2.75;;
76123;SDS011;65173;48.066;20.976;2023-11-19T05:48:56;9.50;;;3.03;;
76123;SDS011;65173;48.066;20.976;2023-11-19T05:51:59;4.32;;;2.72;;
76123;SDS011;65173;48.066;20.976;2023-11-19T05:55:04;6.85;;;2.30;;
76123;SDS011;65173;48.066;20.976;2023-11-19T05:58:11;6.07;;;2.57;;
76123;SDS011;65173;48.066;20.976;2023-11-19T06:01:14;6.75;;;3.03;;
76123;SDS011;65173;48.066;20.976;2023-11-19T06:04:17;5.63;;;1.85;;
76123;SDS011;65173;48.066;20.976;2023-11-19T06:07:19;5.63;;;2.80;;
76123;SDS011;65173;48.066;20.976;2023-11-19T06:10:22;7.32;;;3.13;;
76123;SDS011;65173;48.066;20.976;2023-11-19T06:13:26;5.60;;;2.90;;
76123;SDS011;65173;48.066;20.976;2023-11-19T06:16:29;6.53;;;2.60;;
76123;SDS011;65173;48.066;20.976;2023-11-19T06:19:31;6.37;;;2.80;;
76123;SDS011;65173;48.066;20.976;2023-11-19T06:22:35;8.27;;;3.67;;
76123;SDS011;65173;48.066;20.976;2023-11-19T06:25:37;6.55;;;3.00;;
76123;SDS011;65173;48.066;20.976;2023-11-19T06:28:40;7.20;;;4.33;;
76123;SDS011;65173;48.066;20.976;2023-11-19T06:31:43;6.88;;;3.67;;
76123;SDS011;65173;48.066;20.976;2023-11-19T06:34:45;7.50;;;4.38;;
76123;SDS011;65173;48.066;20.976;2023-11-19T06:37:48;7.75;;;2.63;;
76123;SDS011;65173;48.066;20.976;2023-11-19T06:40:50;7.90;;;2.80;;
76123;SDS011;65173;48.066;20.976;2023-11-19T06:43:55;6.63;;;3.85;;
76123;SDS011;65173;48.066;20.976;2023-11-19T06:46:58;7.28;;;3.33;;
76123;SDS011;65173;48.066;20.976;2023-11-19T06:50:01;8.97;;;4.20;;
76123;SDS011;65173;48.066;20.976;2023-11-19T06:53:06;12.43;;;5.88;;
76123;SDS011;65173;48.066;20.976;2023-11-19T06:59:27;14.40;;;5.00;;
76123;SDS011;65173;48.066;20.976;2023-11-19T07:02:31;8.10;;;4.53;;
76123;SDS011;65173;48.066;20.976;2023-11-19T07:05:35;7.57;;;4.82;;
76123;SDS011;65173;48.066;20.976;2023-11-19T07:08:41;5.97;;;3.42;;
76123;SDS011;65173;48.066;20.976;2023-11-19T07:11:43;5.85;;;3.38;;
76123;SDS011;65173;48.066;20.976;2023-11-19T07:14:47;13.13;;;5.13;;
76123;SDS011;65173;48.066;20.976;2023-11-19T07:17:50;11.60;;;4.13;;
76123;SDS011;65173;48.066;20.976;2023-11-19T07:21:04;5.07;;;3.90;;
76123;SDS011;65173;48.066;20.976;2023-11-19T07:24:07;7.32;;;4.57;;
76123;SDS011;65173;48.066;20.976;2023-11-19T07:27:09;6.35;;;3.38;;
76123;SDS011;65173;48.066;20.976;2023-11-19T07:30:12;6.33;;;3.93;;
76123;SDS011;65173;48.066;20.976;2023-11-19T07:33:14;7.10;;;4.18;;
76123;SDS011;65173;48.066;20.976;2023-11-19T07:36:17;10.98;;;6.07;;
76123;SDS011;65173;48.066;20.976;2023-11-19T07:39:19;8.70;;;5.15;;
76123;SDS011;65173;48.066;20.976;2023-11-19T07:42:23;13.70;;;6.53;;
76123;SDS011;65173;48.066;20.976;2023-11-19T07:45:26;16.38;;;7.55;;
76123;SDS011;65173;48.066;20.976;2023-11-19T07:48:29;19.50;;;11.43;;
76123;SDS011;65173;48.066;20.976;2023-11-19T07:51:32;24.40;;;10.83;;
76123;SDS011;65173;48.066;20.976;2023-11-19T07:54:34;15.55;;;8.38;;
76123;SDS011;65173;48.066;20.976;2023-11-19T07:57:37;17.02;;;7.95;;
76123;SDS011;65173;48.066;20.976;2023-11-19T08:00:39;11.90;;;6.20;;
76123;SDS011;65173;48.066;20.976;2023-11-19T08:03:42;11.18;;;6.65;;
76123;SDS011;65173;48.066;20.976;2023-11-19T08:07:00;12.40;;;5.45;;
76123;SDS011;65173;48.066;20.976;2023-11-19T08:10:02;9.10;;;4.97;;
76123;SDS011;65173;48.066;20.976;2023-11-19T08:13:07;16.45;;;7.35;;
76123;SDS011;65173;48.066;20.976;2023-11-19T08:16:09;21.83;;;8.57;;
76123;SDS011;65173;48.066;20.976;2023-11-19T08:19:13;14.65;;;6.55;;
76123;SDS011;65173;48.066;20.976;2023-11-19T08:22:15;17.77;;;7.20;;
76123;SDS011;65173;48.066;20.976;2023-11-19T08:25:18;17.30;;;9.00;;
76123;SDS011;65173;48.066;20.976;2023-11-19T08:28:21;14.70;;;6.90;;
76123;SDS011;65173;48.066;20.976;2023-11-19T08:31:24;9.60;;;5.47;;
76123;SDS011;65173;48.066;20.976;2023-11-19T08:34:27;6.45;;;4.45;;
76123;SDS011;65173;48.066;20.976;2023-11-19T08:37:30;7.30;;;4.43;;
76123;SDS011;65173;48.066;20.976;2023-11-19T08:40:33;7.95;;;4.07;;
76123;SDS011;65173;48.066;20.976;2023-11-19T08:43:35;7.30;;;4.30;;
76123;SDS011;65173;48.066;20.976;2023-11-19T08:46:38;9.50;;;4.60;;
76123;SDS011;65173;48.066;20.976;2023-11-19T08:49:41;13.82;;;6.05;;
76123;SDS011;65173;48.066;20.976;2023-11-19T08:52:44;16.10;;;8.57;;
76123;SDS011;65173;48.066;20.976;2023-11-19T08:55:47;19.85;;;9.68;;
76123;SDS011;65173;48.066;20.976;2023-11-19T08:58:49;29.45;;;8.40;;
76123;SDS011;65173;48.066;20.976;2023-11-19T09:01:52;19.53;;;8.63;;
76123;SDS011;65173;48.066;20.976;2023-11-19T09:04:54;14.05;;;6.72;;
76123;SDS011;65173;48.066;20.976;2023-11-19T09:07:57;16.02;;;7.43;;
76123;SDS011;65173;48.066;20.976;2023-11-19T09:10:59;11.85;;;6.63;;
76123;SDS011;65173;48.066;20.976;2023-11-19T09:14:02;16.33;;;6.38;;
76123;SDS011;65173;48.066;20.976;2023-11-19T09:17:04;15.45;;;6.47;;
76123;SDS011;65173;48.066;20.976;2023-11-19T09:20:07;19.52;;;7.90;;
76123;SDS011;65173;48.066;20.976;2023-11-19T09:23:10;9.40;;;4.43;;
76123;SDS011;65173;48.066;20.976;2023-11-19T09:26:14;8.65;;;5.85;;
76123;SDS011;65173;48.066;20.976;2023-11-19T09:29:17;8.70;;;5.45;;
76123;SDS011;65173;48.066;20.976;2023-11-19T09:32:19;8.67;;;4.17;;
76123;SDS011;65173;48.066;20.976;2023-11-19T09:35:22;9.55;;;3.85;;
76123;SDS011;65173;48.066;20.976;2023-11-19T09:38:24;8.18;;;4.60;;
76123;SDS011;65173;48.066;20.976;2023-11-19T09:41:27;6.45;;;3.70;;
76123;SDS011;65173;48.066;20.976;2023-11-19T09:44:32;12.13;;;5.20;;
76123;SDS011;65173;48.066;20.976;2023-11-19T09:47:35;6.30;;;2.83;;
76123;SDS011;65173;48.066;20.976;2023-11-19T09:50:38;3.58;;;1.65;;
76123;SDS011;65173;48.066;20.976;2023-11-19T09:53:41;2.27;;;1.73;;
76123;SDS011;65173;48.066;20.976;2023-11-19T09:56:44;3.72;;;2.40;;
76123;SDS011;65173;48.066;20.976;2023-11-19T09:59:48;5.43;;;2.03;;
76123;SDS011;65173;48.066;20.976;2023-11-19T10:02:52;4.47;;;2.57;;
76123;SDS011;65173;48.066;20.976;2023-11-19T10:05:57;4.60;;;2.67;;
76123;SDS011;65173;48.066;20.976;2023-11-19T10:09:00;3.72;;;3.28;;
76123;SDS011;65173;48.066;20.976;2023-11-19T10:12:02;5.00;;;3.17;;
76123;SDS011;65173;48.066;20.976;2023-11-19T10:15:05;3.95;;;2.38;;
76123;SDS011;65173;48.066;20.976;2023-11-19T10:18:14;5.97;;;4.03;;
76123;SDS011;65173;48.066;20.976;2023-11-19T10:21:19;6.32;;;3.50;;
76123;SDS011;65173;48.066;20.976;2023-11-19T10:24:31;4.13;;;3.03;;
76123;SDS011;65173;48.066;20.976;2023-11-19T10:27:42;4.55;;;2.35;;
76123;SDS011;65173;48.066;20.976;2023-11-19T10:30:46;3.20;;;1.95;;
76123;SDS011;65173;48.066;20.976;2023-11-19T10:33:51;5.83;;;3.63;;
76123;SDS011;65173;48.066;20.976;2023-11-19T10:36:54;6.55;;;2.72;;
76123;SDS011;65173;48.066;20.976;2023-11-19T10:39:57;7.22;;;3.17;;
76123;SDS011;65173;48.066;20.976;2023-11-19T10:43:03;3.25;;;2.15;;
76123;SDS011;65173;48.066;20.976;2023-11-19T10:46:09;2.88;;;2.67;;
76123;SDS011;65173;48.066;20.976;2023-11-19T10:49:14;5.30;;;2.28;;
76123;SDS011;65173;48.066;20.976;2023-11-19T10:52:19;5.40;;;2.72;;
76123;SDS011;65173;48.066;20.976;2023-11-19T10:55:23;4.97;;;3.67;;
76123;SDS011;65173;48.066;20.976;2023-11-19T10:58:29;5.00;;;1.98;;
76123;SDS011;65173;48.066;20.976;2023-11-19T11:01:39;4.45;;;3.70;;
76123;SDS011;65173;48.066;20.976;2023-11-19T11:04:45;4.13;;;2.60;;
76123;SDS011;65173;48.066;20.976;2023-11-19T11:07:49;5.07;;;3.10;;
76123;SDS011;65173;48.066;20.976;2023-11-19T11:10:55;7.88;;;3.75;;
76123;SDS011;65173;48.066;20.976;2023-11-19T11:13:59;6.28;;;3.67;;
76123;SDS011;65173;48.066;20.976;2023-11-19T11:17:04;8.07;;;3.75;;
76123;SDS011;65173;48.066;20.976;2023-11-19T11:20:10;4.85;;;2.95;;
76123;SDS011;65173;48.066;20.976;2023-11-19T11:30:20;1.92;;;1.80;;
76123;SDS011;65173;48.066;20.976;2023-11-19T11:37:10;9.93;;;5.60;;
76123;SDS011;65173;48.066;20.976;2023-11-19T11:40:33;2.63;;;2.35;;
76123;SDS011;65173;48.066;20.976;2023-11-19T11:43:51;1.58;;;1.48;;
76123;SDS011;65173;48.066;20.976;2023-11-19T11:46:54;5.38;;;3.10;;
76123;SDS011;65173;48.066;20.976;2023-11-19T11:49:58;10.30;;;2.88;;
76123;SDS011;65173;48.066;20.976;2023-11-19T11:53:18;5.75;;;2.67;;
76123;SDS011;65173;48.066;20.976;2023-11-19T11:56:22;3.88;;;2.97;;
76123;SDS011;65173;48.066;20.976;2023-11-19T11:59:24;2.43;;;1.50;;
76123;SDS011;65173;48.066;20.976;2023-11-19T12:02:26;3.30;;;2.65;;
76123;SDS011;65173;48.066;20.976;2023-11-19T12:05:29;6.25;;;2.75;;
76123;SDS011;65173;48.066;20.976;2023-11-19T12:08:33;2.70;;;1.90;;
76123;SDS011;65173;48.066;20.976;2023-11-19T12:12:06;10.88;;;5.13;;
76123;SDS011;65173;48.066;20.976;2023-11-19T12:15:13;6.70;;;4.45;;
76123;SDS011;65173;48.066;20.976;2023-11-19T12:18:26;6.10;;;3.30;;
76123;SDS011;65173;48.066;20.976;2023-11-19T12:21:30;3.55;;;3.15;;
76123;SDS011;65173;48.066;20.976;2023-11-19T12:24:33;4.53;;;2.13;;
76123;SDS011;65173;48.066;20.976;2023-11-19T12:27:36;6.13;;;2.97;;
76123;SDS011;65173;48.066;20.976;2023-11-19T12:30:43;2.73;;;1.40;;
76123;SDS011;65173;48.066;20.976;2023-11-19T12:33:47;8.70;;;4.53;;
76123;SDS011;65173;48.066;20.976;2023-11-19T12:36:50;6.45;;;4.13;;
76123;SDS011;65173;48.066;20.976;2023-11-19T12:39:52;6.20;;;4.00;;
76123;SDS011;65173;48.066;20.976;2023-11-19T12:42:55;4.93;;;2.13;;
76123;SDS011;65173;48.066;20.976;2023-11-19T12:45:58;8.15;;;4.32;;
76123;SDS011;65173;48.066;20.976;2023-11-19T12:49:01;4.50;;;2.40;;
76123;SDS011;65173;48.066;20.976;2023-11-19T12:52:11;6.18;;;3.28;;
76123;SDS011;65173;48.066;20.976;2023-11-19T12:55:28;7.68;;;2.70;;
76123;SDS011;65173;48.066;20.976;2023-11-19T12:58:33;2.40;;;2.08;;
76123;SDS011;65173;48.066;20.976;2023-11-19T13:01:38;8.17;;;5.03;;
76123;SDS011;65173;48.066;20.976;2023-11-19T13:04:42;2.42;;;2.08;;
76123;SDS011;65173;48.066;20.976;2023-11-19T13:07:45;3.05;;;2.75;;
76123;SDS011;65173;48.066;20.976;2023-11-19T13:13:57;7.57;;;4.82;;
76123;SDS011;65173;48.066;20.976;2023-11-19T13:17:06;7.95;;;2.70;;
76123;SDS011;65173;48.066;20.976;2023-11-19T13:20:08;9.65;;;4.65;;
76123;SDS011;65173;48.066;20.976;2023-11-19T13:23:12;6.95;;;3.92;;
76123;SDS011;65173;48.066;20.976;2023-11-19T13:26:18;3.20;;;2.35;;
76123;SDS011;65173;48.066;20.976;2023-11-19T13:29:20;4.15;;;1.88;;
76123;SDS011;65173;48.066;20.976;2023-11-19T13:32:23;6.00;;;2.87;;
76123;SDS011;65173;48.066;20.976;2023-11-19T13:35:25;3.22;;;1.63;;
76123;SDS011;65173;48.066;20.976;2023-11-19T13:38:30;9.85;;;4.65;;
76123;SDS011;65173;48.066;20.976;2023-11-19T13:41:32;3.47;;;2.00;;
76123;SDS011;65173;48.066;20.976;2023-11-19T13:44:35;7.47;;;4.22;;
76123;SDS011;65173;48.066;20.976;2023-11-19T13:47:38;10.77;;;4.50;;
76123;SDS011;65173;48.066;20.976;2023-11-19T13:50:44;7.95;;;3.83;;
76123;SDS011;65173;48.066;20.976;2023-11-19T13:53:47;5.10;;;2.47;;
76123;SDS011;65173;48.066;20.976;2023-11-19T13:56:54;4.95;;;3.85;;
76123;SDS011;65173;48.066;20.976;2023-11-19T14:00:00;9.23;;;3.85;;
76123;SDS011;65173;48.066;20.976;2023-11-19T14:03:10;11.53;;;5.13;;
76123;SDS011;65173;48.066;20.976;2023-11-19T14:06:13;11.18;;;4.57;;
76123;SDS011;65173;48.066;20.976;2023-11-19T14:09:17;8.68;;;3.58;;
76123;SDS011;65173;48.066;20.976;2023-11-19T14:12:19;10.23;;;4.53;;
76123;SDS011;65173;48.066;20.976;2023-11-19T14:15:22;8.55;;;3.00;;
76123;SDS011;65173;48.066;20.976;2023-11-19T14:18:24;6.53;;;1.75;;
76123;SDS011;65173;48.066;20.976;2023-11-19T14:21:27;3.75;;;2.67;;
76123;SDS011;65173;48.066;20.976;2023-11-19T14:24:29;4.72;;;2.45;;
76123;SDS011;65173;48.066;20.976;2023-11-19T14:27:32;4.00;;;1.00;;
76123;SDS011;65173;48.066;20.976;2023-11-19T14:30:35;1.52;;;1.25;;
76123;SDS011;65173;48.066;20.976;2023-11-19T14:33:37;6.60;;;3.17;;
76123;SDS011;65173;48.066;20.976;2023-11-19T14:36:40;11.57;;;4.95;;
76123;SDS011;65173;48.066;20.976;2023-11-19T14:39:42;7.18;;;2.80;;
76123;SDS011;65173;48.066;20.976;2023-11-19T14:42:48;9.17;;;3.67;;
76123;SDS011;65173;48.066;20.976;2023-11-19T14:45:51;10.13;;;6.60;;
76123;SDS011;65173;48.066;20.976;2023-11-19T14:48:54;8.38;;;4.15;;
76123;SDS011;65173;48.066;20.976;2023-11-19T14:51:57;5.45;;;3.05;;
76123;SDS011;65173;48.066;20.976;2023-11-19T14:55:19;7.47;;;3.20;;
76123;SDS011;65173;48.066;20.976;2023-11-19T14:58:21;7.22;;;3.90;;
76123;SDS011;65173;48.066;20.976;2023-11-19T15:01:24;7.78;;;4.05;;
76123;SDS011;65173;48.066;20.976;2023-11-19T15:04:27;5.43;;;3.10;;
76123;SDS011;65173;48.066;20.976;2023-11-19T15:07:32;13.93;;;4.20;;
76123;SDS011;65173;48.066;20.976;2023-11-19T15:10:34;8.10;;;4.03;;
76123;SDS011;65173;48.066;20.976;2023-11-19T15:13:37;5.57;;;3.43;;
76123;SDS011;65173;48.066;20.976;2023-11-19T15:16:40;9.38;;;4.70;;
76123;SDS011;65173;48.066;20.976;2023-11-19T15:19:43;13.63;;;5.05;;
76123;SDS011;65173;48.066;20.976;2023-11-19T15:22:48;10.20;;;5.32;;
76123;SDS011;65173;48.066;20.976;2023-11-19T15:25:50;8.80;;;4.60;;
76123;SDS011;65173;48.066;20.976;2023-11-19T15:28:53;8.77;;;5.07;;
76123;SDS011;65173;48.066;20.976;2023-11-19T15:31:59;9.70;;;4.18;;
76123;SDS011;65173;48.066;20.976;2023-11-19T15:35:02;3.57;;;2.60;;
76123;SDS011;65173;48.066;20.976;2023-11-19T15:38:06;10.48;;;5.05;;
76123;SDS011;65173;48.066;20.976;2023-11-19T15:41:12;10.38;;;5.15;;
76123;SDS011;65173;48.066;20.976;2023-11-19T15:44:15;7.37;;;4.53;;
76123;SDS011;65173;48.066;20.976;2023-11-19T15:47:17;2.33;;;1.88;;
76123;SDS011;65173;48.066;20.976;2023-11-19T15:50:20;8.60;;;5.07;;
76123;SDS011;65173;48.066;20.976;2023-11-19T15:53:22;4.93;;;2.03;;
76123;SDS011;65173;48.066;20.976;2023-11-19T15:56:25;9.63;;;3.35;;
76123;SDS011;65173;48.066;20.976;2023-11-19T15:59:28;7.00;;;4.50;;
76123;SDS011;65173;48.066;20.976;2023-11-19T16:02:30;7.55;;;4.30;;
76123;SDS011;65173;48.066;20.976;2023-11-19T16:05:33;11.50;;;4.67;;
76123;SDS011;65173;48.066;20.976;2023-11-19T16:08:36;14.05;;;5.38;;
76123;SDS011;65173;48.066;20.976;2023-11-19T16:11:41;13.73;;;6.22;;
76123;SDS011;65173;48.066;20.976;2023-11-19T16:14:57;11.63;;;6.17;;
76123;SDS011;65173;48.066;20.976;2023-11-19T16:18:00;8.85;;;4.72;;
76123;SDS011;65173;48.066;20.976;2023-11-19T16:21:02;9.63;;;4.90;;
76123;SDS011;65173;48.066;20.976;2023-11-19T16:24:06;9.15;;;5.72;;
76123;SDS011;65173;48.066;20.976;2023-11-19T16:27:09;12.25;;;6.30;;
76123;SDS011;65173;48.066;20.976;2023-11-19T16:30:30;7.38;;;4.18;;
76123;SDS011;65173;48.066;20.976;2023-11-19T16:33:32;7.07;;;4.45;;
76123;SDS011;65173;48.066;20.976;2023-11-19T16:36:37;12.70;;;5.20;;
76123;SDS011;65173;48.066;20.976;2023-11-19T16:39:40;3.45;;;2.42;;
76123;SDS011;65173;48.066;20.976;2023-11-19T16:42:44;8.50;;;3.97;;
76123;SDS011;65173;48.066;20.976;2023-11-19T16:45:51;5.73;;;4.00;;
76123;SDS011;65173;48.066;20.976;2023-11-19T16:48:54;6.95;;;3.80;;
76123;SDS011;65173;48.066;20.976;2023-11-19T16:51:56;9.40;;;5.82;;
76123;SDS011;65173;48.066;20.976;2023-11-19T16:55:03;10.18;;;5.82;;
76123;SDS011;65173;48.066;20.976;2023-11-19T16:58:08;16.30;;;7.82;;
76123;SDS011;65173;48.066;20.976;2023-11-19T17:01:12;5.38;;;3.05;;
76123;SDS011;65173;48.066;20.976;2023-11-19T17:04:18;10.88;;;5.32;;
76123;SDS011;65173;48.066;20.976;2023-11-19T17:07:21;4.70;;;2.87;;
76123;SDS011;65173;48.066;20.976;2023-11-19T17:10:24;4.38;;;3.22;;
76123;SDS011;65173;48.066;20.976;2023-11-19T17:13:26;7.20;;;6.07;;
76123;SDS011;65173;48.066;20.976;2023-11-19T17:16:29;7.87;;;4.27;;
76123;SDS011;65173;48.066;20.976;2023-11-19T17:19:32;7.88;;;4.93;;
76123;SDS011;65173;48.066;20.976;2023-11-19T17:22:35;20.95;;;7.50;;
76123;SDS011;65173;48.066;20.976;2023-11-19T17:25:41;16.10;;;7.00;;
76123;SDS011;65173;48.066;20.976;2023-11-19T17:28:43;13.45;;;6.03;;
76123;SDS011;65173;48.066;20.976;2023-11-19T17:31:46;11.63;;;5.88;;
76123;SDS011;65173;48.066;20.976;2023-11-19T17:34:48;9.57;;;5.00;;
76123;SDS011;65173;48.066;20.976;2023-11-19T17:37:51;5.10;;;2.90;;
76123;SDS011;65173;48.066;20.976;2023-11-19T17:40:57;9.65;;;5.53;;
76123;SDS011;65173;48.066;20.976;2023-11-19T17:44:00;8.77;;;5.15;;
76123;SDS011;65173;48.066;20.976;2023-11-19T17:47:03;8.50;;;4.40;;
76123;SDS011;65173;48.066;20.976;2023-11-19T17:50:06;8.05;;;4.63;;
76123;SDS011;65173;48.066;20.976;2023-11-19T17:53:14;3.67;;;2.15;;
76123;SDS011;65173;48.066;20.976;2023-11-19T17:56:17;10.70;;;5.07;;
76123;SDS011;65173;48.066;20.976;2023-11-19T17:59:20;4.50;;;3.40;;
76123;SDS011;65173;48.066;20.976;2023-11-19T18:02:27;2.00;;;1.38;;
76123;SDS011;65173;48.066;20.976;2023-11-19T18:05:33;15.02;;;5.47;;
76123;SDS011;65173;48.066;20.976;2023-11-19T18:08:36;7.43;;;4.10;;
76123;SDS011;65173;48.066;20.976;2023-11-19T18:11:39;11.95;;;4.53;;
76123;SDS011;65173;48.066;20.976;2023-11-19T18:14:42;7.47;;;3.42;;
76123;SDS011;65173;48.066;20.976;2023-11-19T18:17:47;5.27;;;3.00;;
76123;SDS011;65173;48.066;20.976;2023-11-19T18:20:50;5.00;;;2.50;;
76123;SDS011;65173;48.066;20.976;2023-11-19T18:23:52;3.15;;;2.28;;